Time;durP1;ratioP1;P1;durP2;ratioP2;P2;SDS_P1;SDS_P2;PMS_P1;PMS_P2;Temp;Humidity;BMP_temperature;BMP_pressure;BME280_temperature;BME280_humidity;BME280_pressure;Samples;Min_cycle;Max_cycle;Signal;HPM_P1;HPM_P2
2024/02/23 00:02:08;;;;;;;1.23;0.40;;;9.90;78.20;;;9.19;69.77;95712.25;5044591;28;20445;-74
2024/02/23 00:04:35;;;;;;;0.60;0.30;;;9.80;77.80;;;9.26;69.64;95718.19;5049385;28;20488;-73
2024/02/23 00:07:06;;;;;;;0.40;0.33;;;9.80;78.30;;;9.05;69.37;95707.34;5045248;28;20483;-72
2024/02/23 00:09:33;;;;;;;0.87;0.30;;;9.80;77.50;;;9.02;68.88;95726.72;5045593;28;20560;-73
2024/02/23 00:12:01;;;;;;;2.47;0.40;;;9.70;77.10;;;9.07;69.24;95734.00;5045318;28;20482;-73
2024/02/23 00:14:28;;;;;;;0.40;0.33;;;9.70;77.30;;;9.05;68.46;95741.53;5047299;28;20937;-73
2024/02/23 00:16:56;;;;;;;0.80;0.30;;;9.70;77.10;;;9.06;68.77;95730.50;5049282;28;21600;-72
2024/02/23 00:19:25;;;;;;;1.13;0.33;;;9.70;76.90;;;9.01;69.52;95733.16;5048188;28;21039;-70
2024/02/23 00:21:52;;;;;;;0.50;0.40;;;9.60;77.10;;;9.03;68.62;95736.41;5052143;28;20548;-73
2024/02/23 00:24:21;;;;;;;0.43;0.40;;;9.70;77.10;;;8.87;69.91;95742.75;5047349;28;20828;-72
2024/02/23 00:26:50;;;;;;;0.67;0.30;;;9.60;77.30;;;8.93;70.10;95742.53;5060106;28;20503;-72
2024/02/23 00:29:18;;;;;;;0.63;0.40;;;9.60;77.40;;;8.91;70.04;95755.44;5044333;28;21062;-71
2024/02/23 00:31:46;;;;;;;0.70;0.30;;;9.50;77.40;;;8.89;69.06;95746.03;5046826;28;20518;-71
2024/02/23 00:34:13;;;;;;;0.40;0.27;;;9.50;76.60;;;8.79;68.30;95747.59;5046680;28;20456;-70
2024/02/23 00:36:44;;;;;;;0.40;0.20;;;9.50;76.30;;;8.78;68.15;95778.28;5049500;28;20501;-73
2024/02/23 00:39:12;;;;;;;0.53;0.30;;;9.40;76.00;;;8.79;67.10;95796.03;5052184;28;20522;-72
2024/02/23 00:41:39;;;;;;;0.40;0.30;;;9.40;75.60;;;8.59;66.29;95801.28;5047743;28;20832;-73
2024/02/23 00:44:07;;;;;;;0.60;0.33;;;9.30;74.80;;;8.56;66.93;95815.22;5076677;28;20456;-72
2024/02/23 00:46:34;;;;;;;0.60;0.23;;;9.30;74.70;;;8.36;66.11;95804.03;5050205;28;20457;-73
2024/02/23 00:49:02;;;;;;;0.53;0.30;;;9.20;74.10;;;8.44;66.10;95832.34;5047763;28;20471;-72
2024/02/23 00:51:29;;;;;;;0.40;0.33;;;9.10;74.30;;;8.52;66.02;95833.78;5049621;28;20798;-73
2024/02/23 00:53:58;;;;;;;0.30;0.20;;;9.10;74.20;;;8.34;67.09;95840.31;5056499;28;20462;-72
2024/02/23 00:56:27;;;;;;;2.97;0.20;;;9.10;74.30;;;8.41;65.83;95848.97;5042885;28;21392;-73
2024/02/23 00:58:54;;;;;;;0.80;0.37;;;9.10;73.90;;;8.31;66.92;95849.69;5045061;28;20946;-72
2024/02/23 01:01:22;;;;;;;0.40;0.20;;;9.00;74.00;;;8.22;65.61;95841.28;5052085;28;20459;-72
2024/02/23 01:03:49;;;;;;;0.30;0.20;;;8.90;73.40;;;8.23;66.48;95842.09;5051007;28;20460;-70
2024/02/23 01:06:16;;;;;;;0.60;0.40;;;8.90;73.80;;;8.11;66.76;95839.53;5047166;28;20478;-73
2024/02/23 01:08:47;;;;;;;1.27;0.30;;;8.80;73.90;;;7.91;66.22;95838.25;5046247;28;20921;-71
2024/02/23 01:11:16;;;;;;;1.23;0.30;;;8.70;73.50;;;7.76;65.88;95857.72;5047211;28;20468;-72
2024/02/23 01:13:45;;;;;;;0.80;0.30;;;8.60;73.30;;;7.63;66.29;95850.84;5047168;28;20459;-74
2024/02/23 01:16:13;;;;;;;0.40;0.20;;;8.50;73.00;;;7.67;65.66;95855.75;5048126;28;21048;-71
2024/02/23 01:18:40;;;;;;;0.60;0.30;;;8.50;72.80;;;7.20;66.85;95817.50;5050501;28;20473;-71
2024/02/23 01:21:09;;;;;;;0.83;0.20;;;8.30;73.00;;;7.59;66.46;95863.16;5047231;28;20513;-72
2024/02/23 01:23:36;;;;;;;0.50;0.20;;;8.30;73.00;;;7.55;66.06;95866.59;5051560;28;21127;-72
2024/02/23 01:26:04;;;;;;;3.50;0.40;;;8.20;73.00;;;7.37;67.11;95849.69;5050321;28;20452;-72
2024/02/23 01:28:33;;;;;;;1.03;0.27;;;8.20;73.10;;;7.34;66.60;95850.19;5045083;28;20444;-73
2024/02/23 01:31:01;;;;;;;1.00;0.20;;;8.20;73.00;;;7.41;66.72;95863.47;5054595;28;20889;-72
2024/02/23 01:33:28;;;;;;;0.40;0.30;;;8.10;73.40;;;7.24;67.70;95880.41;5045583;28;20453;-72
2024/02/23 01:35:57;;;;;;;0.50;0.30;;;8.00;73.40;;;7.28;68.02;95886.09;5047597;28;21043;-71
2024/02/23 01:38:24;;;;;;;1.13;0.50;;;8.00;73.60;;;7.21;67.92;95894.34;5044456;28;20518;-71
2024/02/23 01:40:52;;;;;;;0.77;0.30;;;7.90;73.60;;;7.15;67.13;95885.41;5076162;28;20982;-71
2024/02/23 01:43:19;;;;;;;1.30;0.53;;;7.90;73.20;;;7.15;67.89;95898.00;5050118;28;20450;-72
2024/02/23 01:45:48;;;;;;;0.43;0.30;;;7.90;73.60;;;7.07;68.31;95894.69;5049322;28;20455;-71
2024/02/23 01:48:15;;;;;;;0.50;0.40;;;7.80;73.60;;;6.97;68.09;95891.81;5058952;28;20499;-71
2024/02/23 01:50:43;;;;;;;0.97;0.40;;;7.80;73.70;;;6.93;69.14;95907.59;5052881;28;20473;-72
2024/02/23 01:53:13;;;;;;;0.50;0.30;;;7.70;74.00;;;6.89;69.13;95911.00;5067861;28;20483;-72
2024/02/23 01:55:42;;;;;;;1.07;0.50;;;7.70;74.10;;;6.93;69.55;95912.19;5053250;28;20508;-71
2024/02/23 01:58:09;;;;;;;0.77;0.30;;;7.60;74.30;;;6.82;69.68;95897.75;5044177;28;20492;-71
2024/02/23 02:00:37;;;;;;;0.73;0.37;;;7.60;74.30;;;6.80;70.04;95908.75;5045029;28;20485;-71
2024/02/23 02:03:06;;;;;;;1.63;0.60;;;7.60;74.40;;;6.88;69.77;95909.38;5047844;28;20491;-71
2024/02/23 02:05:33;;;;;;;0.50;0.30;;;7.60;74.70;;;6.88;69.58;95914.75;5045304;28;20797;-72
2024/02/23 02:08:01;;;;;;;0.60;0.40;;;7.50;74.60;;;6.73;71.20;95928.75;5054336;28;20475;-71
2024/02/23 02:10:29;;;;;;;0.50;0.27;;;7.50;75.30;;;6.63;71.63;95921.34;5047835;28;20525;-73
2024/02/23 02:12:56;;;;;;;0.70;0.40;;;7.50;75.50;;;6.68;71.58;95921.41;5045877;28;20459;-71
2024/02/23 02:15:23;;;;;;;0.77;0.50;;;7.40;75.40;;;6.66;72.20;95912.78;5043863;28;20461;-73
2024/02/23 02:17:53;;;;;;;0.90;0.40;;;7.40;75.80;;;6.65;72.25;95928.06;5040222;28;20849;-71
2024/02/23 02:20:26;;;;;;;0.70;0.40;;;7.40;75.90;;;6.55;72.85;95935.97;5049803;28;20552;-70
2024/02/23 02:22:53;;;;;;;0.57;0.50;;;7.30;76.10;;;6.48;73.17;95936.09;5054916;28;20507;-71
2024/02/23 02:25:21;;;;;;;1.10;0.53;;;7.30;76.20;;;6.44;73.09;95948.34;5043093;28;20457;-72
2024/02/23 02:27:48;;;;;;;2.70;0.70;;;7.20;76.10;;;6.45;73.20;95971.47;5046486;28;20468;-71
2024/02/23 02:30:16;;;;;;;0.60;0.30;;;7.20;76.30;;;6.51;72.57;95977.72;5046401;28;21087;-72
2024/02/23 02:32:43;;;;;;;0.70;0.50;;;7.30;76.20;;;6.49;73.01;95972.59;5047511;28;20475;-70
2024/02/23 02:35:12;;;;;;;4.27;0.40;;;7.30;76.10;;;6.47;73.51;95972.03;5048306;28;20470;-71
2024/02/23 02:37:42;;;;;;;0.90;0.30;;;7.30;76.30;;;6.49;73.59;95982.50;5074270;28;20478;-71
2024/02/23 02:40:12;;;;;;;1.30;0.40;;;7.20;76.50;;;6.30;74.16;95976.53;5040194;28;20449;-74
2024/02/23 02:42:42;;;;;;;1.57;0.60;;;7.20;76.80;;;6.30;73.78;95984.59;5039979;28;21038;-72
2024/02/23 02:45:09;;;;;;;0.93;0.37;;;7.10;76.60;;;6.33;74.09;95987.59;5041004;28;20454;-72
2024/02/23 02:47:37;;;;;;;0.67;0.40;;;7.10;76.70;;;6.34;73.73;95993.78;5038285;28;20453;-72
2024/02/23 02:50:06;;;;;;;1.23;0.40;;;7.10;76.80;;;6.33;73.85;95995.63;5039338;28;20971;-74
2024/02/23 02:52:33;;;;;;;0.40;0.30;;;7.00;76.80;;;6.41;73.91;96004.38;5048153;28;20507;-72
2024/02/23 02:55:02;;;;;;;2.50;0.50;;;7.10;77.30;;;6.37;73.85;96006.69;5039790;28;20924;-72
2024/02/23 02:57:29;;;;;;;1.83;0.60;;;7.10;77.20;;;6.40;73.86;95990.13;5051934;28;20491;-71
2024/02/23 02:59:57;;;;;;;1.70;0.40;;;7.10;76.90;;;6.40;73.68;96002.75;5040745;28;20553;-72
2024/02/23 03:02:24;;;;;;;4.83;1.73;;;7.00;76.80;;;6.36;72.77;95988.97;5053560;28;20450;-71
2024/02/23 03:04:54;;;;;;;0.90;0.60;;;7.10;76.60;;;6.36;72.05;96005.06;5073194;28;20517;-72
2024/02/23 03:07:21;;;;;;;1.00;0.37;;;7.10;76.40;;;6.38;72.60;96000.28;5043561;28;20477;-71
2024/02/23 03:09:49;;;;;;;1.17;0.50;;;7.00;76.50;;;6.28;73.67;95997.38;5046882;28;20454;-71
2024/02/23 03:12:18;;;;;;;3.30;0.80;;;7.00;76.70;;;6.28;72.59;96008.13;5048882;28;20468;-72
2024/02/23 03:14:45;;;;;;;0.83;0.50;;;6.90;76.30;;;6.29;72.76;96018.63;5046098;28;20503;-71
2024/02/23 03:17:14;;;;;;;0.60;0.23;;;6.90;76.30;;;6.12;72.35;96031.94;5043245;28;21032;-74
2024/02/23 03:19:41;;;;;;;3.03;0.60;;;6.90;76.10;;;6.12;72.01;96026.56;5048586;28;20451;-72
2024/02/23 03:22:08;;;;;;;1.00;0.77;;;6.90;75.90;;;6.03;71.84;96028.00;5051694;28;20496;-71
2024/02/23 03:24:36;;;;;;;2.53;0.67;;;6.80;75.60;;;6.04;72.11;96033.09;5048482;28;20509;-71
2024/02/23 03:27:05;;;;;;;1.17;0.50;;;6.80;75.70;;;6.00;71.24;96034.59;5050103;28;20583;-71
2024/02/23 03:29:39;;;;;;;0.50;0.40;;;6.70;75.10;;;5.99;71.07;96021.44;5053549;28;20806;-73
2024/02/23 03:32:07;;;;;;;0.90;0.50;;;6.70;75.20;;;5.93;71.48;96036.59;5050276;28;20483;-70
2024/02/23 03:34:34;;;;;;;2.00;0.67;;;6.70;75.30;;;5.87;71.69;96046.41;5066400;28;20456;-72
2024/02/23 03:37:02;;;;;;;1.37;0.50;;;6.60;75.20;;;5.89;71.26;96035.44;5056867;28;20830;-72
2024/02/23 03:39:30;;;;;;;1.57;0.73;;;6.60;75.50;;;5.91;71.76;96055.59;5039879;28;20492;-72
2024/02/23 03:41:58;;;;;;;0.63;0.40;;;6.60;75.30;;;5.94;71.43;96052.44;5039966;28;20523;-71
2024/02/23 03:44:25;;;;;;;1.27;0.73;;;6.60;74.90;;;5.97;70.45;96067.25;5071977;28;20461;-71
2024/02/23 03:46:53;;;;;;;1.23;0.47;;;6.70;74.80;;;5.95;70.62;96042.53;5051039;28;20471;-73
2024/02/23 03:49:21;;;;;;;1.83;0.90;;;6.70;74.70;;;5.93;69.98;96042.78;5058833;28;20548;-73
2024/02/23 03:51:48;;;;;;;0.90;0.53;;;6.70;74.30;;;5.96;70.14;96038.81;5050585;28;20477;-71
2024/02/23 03:54:17;;;;;;;2.23;0.63;;;6.70;74.40;;;6.02;69.73;96059.34;5046220;28;20482;-72
2024/02/23 03:56:44;;;;;;;2.30;0.50;;;6.70;74.40;;;5.96;69.62;96062.94;5046987;28;20505;-70
2024/02/23 03:59:11;;;;;;;2.87;0.80;;;6.70;74.20;;;5.88;70.39;96058.75;5043092;28;20973;-72
2024/02/23 04:01:39;;;;;;;1.90;0.50;;;6.60;74.20;;;5.92;70.21;96053.75;5042221;28;20455;-73
2024/02/23 04:04:07;;;;;;;1.93;0.77;;;6.60;74.40;;;5.79;70.08;96046.72;5038470;28;20458;-71
2024/02/23 04:06:34;;;;;;;5.57;0.70;;;6.60;74.00;;;5.80;69.87;96035.78;5044429;28;20457;-71
2024/02/23 04:09:02;;;;;;;3.23;0.67;;;6.50;74.00;;;5.87;69.96;96038.34;5047270;28;20844;-71
2024/02/23 04:11:30;;;;;;;2.30;0.90;;;6.50;74.30;;;5.72;69.59;96044.16;5051874;28;20474;-73
2024/02/23 04:13:57;;;;;;;2.37;0.60;;;6.50;73.80;;;5.72;68.83;96044.16;5050470;28;20453;-72
2024/02/23 04:16:26;;;;;;;2.40;0.83;;;6.50;73.50;;;5.88;68.50;96057.91;5048334;28;20912;-71
2024/02/23 04:18:53;;;;;;;1.17;0.70;;;6.50;73.40;;;5.85;68.90;96056.53;5041003;28;20908;-71
2024/02/23 04:21:22;;;;;;;2.33;0.53;;;6.50;73.40;;;5.84;68.38;96070.16;5049605;28;20489;-71
2024/02/23 04:23:50;;;;;;;4.17;1.27;;;6.50;73.30;;;5.79;68.19;96065.50;5047817;28;20868;-72
2024/02/23 04:26:17;;;;;;;6.73;1.43;;;6.50;73.10;;;5.87;68.23;96067.84;5045871;28;20809;-71
2024/02/23 04:28:44;;;;;;;2.90;0.90;;;6.50;72.90;;;5.82;67.91;96065.03;5048436;28;20926;-71
2024/02/23 04:31:12;;;;;;;1.90;0.70;;;6.50;72.90;;;5.84;67.93;96078.19;5047563;28;20479;-72
2024/02/23 04:33:40;;;;;;;2.70;0.60;;;6.50;72.90;;;5.71;68.69;96085.41;5048864;28;20460;-71
2024/02/23 04:36:08;;;;;;;1.23;0.60;;;6.50;72.90;;;5.68;68.05;96092.03;5047679;28;20476;-72
2024/02/23 04:38:38;;;;;;;5.20;0.97;;;6.50;72.70;;;5.67;67.13;96079.69;5043405;28;20452;-72
2024/02/23 04:41:05;;;;;;;4.07;0.80;;;6.50;72.20;;;5.64;67.58;96082.84;5063047;28;20567;-72
2024/02/23 04:43:33;;;;;;;1.60;1.00;;;6.40;72.10;;;5.65;67.54;96081.78;5047207;28;20447;-71
2024/02/23 04:46:00;;;;;;;1.80;0.80;;;6.40;72.20;;;5.63;67.72;96086.56;5047288;28;20453;-72
2024/02/23 04:48:27;;;;;;;4.43;1.20;;;6.40;72.30;;;5.52;68.02;96093.56;5049063;28;20460;-72
2024/02/23 04:50:54;;;;;;;1.57;0.40;;;6.30;72.00;;;5.62;67.23;96086.81;5073040;28;20478;-73
2024/02/23 04:53:22;;;;;;;2.47;0.90;;;6.30;72.40;;;5.55;67.40;96100.31;5051250;28;20477;-70
2024/02/23 04:55:50;;;;;;;1.37;0.80;;;6.30;72.20;;;5.55;66.82;96096.81;5048003;28;21016;-69
2024/02/23 04:58:18;;;;;;;2.77;1.00;;;6.30;71.90;;;5.52;67.33;96103.44;5047013;28;20453;-71
2024/02/23 05:00:45;;;;;;;2.63;0.90;;;6.20;71.90;;;5.60;66.99;96111.16;5050620;28;20459;-71
2024/02/23 05:03:12;;;;;;;2.77;0.70;;;6.30;71.60;;;5.66;66.76;96125.50;5050060;28;20459;-71
2024/02/23 05:05:39;;;;;;;1.90;0.80;;;6.40;71.80;;;5.71;66.22;96138.19;5048607;28;20449;-71
2024/02/23 05:08:07;;;;;;;1.17;0.60;;;6.40;71.60;;;5.71;66.67;96122.94;5046509;28;20454;-73
2024/02/23 05:10:34;;;;;;;2.00;0.60;;;6.40;71.70;;;5.80;66.37;96110.84;5047557;28;20453;-71
2024/02/23 05:13:03;;;;;;;3.97;0.53;;;6.40;71.60;;;5.88;66.30;96104.31;5048524;28;20983;-70
2024/02/23 05:15:30;;;;;;;2.50;0.80;;;6.50;71.50;;;5.76;66.24;96093.59;5048530;28;20510;-73
2024/02/23 05:17:57;;;;;;;3.87;0.77;;;6.50;71.50;;;5.81;66.92;96100.91;5042565;28;20451;-74
2024/02/23 05:20:26;;;;;;;5.70;2.00;;;6.40;71.80;;;5.74;68.05;96102.91;5053804;28;20451;-73
2024/02/23 05:22:53;;;;;;;2.80;1.80;;;6.50;72.20;;;5.84;67.89;96096.97;5051050;28;20463;-74
2024/02/23 05:25:20;;;;;;;3.77;0.87;;;6.50;72.40;;;5.91;67.83;96116.41;5052929;28;20550;-70
2024/02/23 05:27:48;;;;;;;6.60;1.47;;;6.50;72.60;;;5.92;68.81;96115.41;5047306;28;20456;-71
2024/02/23 05:30:17;;;;;;;4.20;0.90;;;6.50;72.60;;;5.53;66.80;96089.00;5049642;28;20459;-71
2024/02/23 05:32:44;;;;;;;3.63;0.70;;;6.50;71.70;;;5.79;69.10;96113.72;5047388;28;20478;-71
2024/02/23 05:35:11;;;;;;;5.30;1.80;;;6.50;72.80;;;5.57;67.13;96100.06;5049135;28;20891;-71
2024/02/23 05:37:38;;;;;;;0.90;0.73;;;6.40;71.80;;;5.56;68.08;96101.94;5046584;28;20527;-71
2024/02/23 05:40:10;;;;;;;4.60;0.77;;;6.30;72.30;;;5.17;67.23;96026.53;5049022;28;20944;-75
2024/02/23 05:42:37;;;;;;;2.30;0.90;;;6.30;72.10;;;5.63;67.44;96093.81;5062158;28;20450;-77
2024/02/23 05:45:08;;;;;;;2.43;1.20;;;6.30;71.90;;;5.54;67.83;96104.03;5072913;28;20545;-79
2024/02/23 05:47:38;;;;;;;2.10;0.90;;;6.20;71.90;;;5.55;67.77;96103.00;5052336;28;20852;-77
2024/02/23 05:50:06;;;;;;;1.50;0.67;;;6.20;72.30;;;5.49;67.39;96095.88;5048160;28;20817;-81
2024/02/23 05:52:34;;;;;;;2.20;0.80;;;6.20;71.80;;;5.41;67.21;96080.94;5048824;28;20471;-75
2024/02/23 05:55:01;;;;;;;2.33;0.77;;;6.20;72.00;;;5.39;67.58;96085.72;5050616;28;20469;-80
2024/02/23 05:57:28;;;;;;;3.17;1.07;;;6.10;71.80;;;5.13;68.10;96065.50;5051785;28;20548;-77
2024/02/23 05:59:56;;;;;;;1.23;0.80;;;6.10;72.00;;;5.35;68.24;96111.34;5046414;28;20474;-79
2024/02/23 06:02:23;;;;;;;7.13;1.30;;;6.00;71.90;;;5.29;68.27;96105.03;5053488;28;20509;-79
2024/02/23 06:04:52;;;;;;;3.97;0.93;;;6.00;71.90;;;5.35;68.49;96114.00;5060489;28;20450;-74
2024/02/23 06:07:21;;;;;;;2.70;1.23;;;6.00;72.00;;;5.33;68.12;96124.94;5060175;28;20453;-73
2024/02/23 06:09:49;;;;;;;4.30;1.60;;;6.00;72.30;;;5.12;68.33;96104.03;5070476;28;20442;-77
2024/02/23 06:12:17;;;;;;;1.67;1.03;;;6.00;72.10;;;5.34;68.43;96134.59;5059574;28;20491;-77
2024/02/23 06:14:44;;;;;;;3.50;1.73;;;6.00;72.10;;;5.32;68.22;96125.97;5065895;28;20455;-74
2024/02/23 06:17:12;;;;;;;1.83;1.17;;;6.00;72.30;;;5.25;68.46;96122.59;5083071;28;20450;-77
2024/02/23 06:19:39;;;;;;;4.83;1.10;;;6.00;72.50;;;5.10;68.93;96123.81;5062964;28;20458;-75
2024/02/23 06:22:09;;;;;;;5.13;1.67;;;5.90;72.50;;;5.15;68.53;96146.41;5069841;28;20444;-72
2024/02/23 06:24:36;;;;;;;5.83;1.60;;;5.90;72.40;;;5.28;68.82;96167.66;5067311;28;20472;-80
2024/02/23 06:27:04;;;;;;;7.20;1.40;;;6.00;72.70;;;5.32;68.31;96179.53;5048693;28;20458;-72
2024/02/23 06:29:32;;;;;;;3.20;0.80;;;6.00;72.30;;;5.07;68.87;96164.41;5077313;28;20860;-73
2024/02/23 06:32:02;;;;;;;2.70;0.80;;;6.00;72.40;;;5.24;69.27;96187.91;5051565;28;20490;-71
2024/02/23 06:34:29;;;;;;;2.60;1.23;;;6.00;72.60;;;5.28;68.79;96193.59;5056784;28;20479;-76
2024/02/23 06:36:57;;;;;;;1.90;0.80;;;6.00;72.50;;;5.41;68.52;96189.94;5063969;28;20549;-73
2024/02/23 06:39:26;;;;;;;1.80;0.93;;;6.10;72.30;;;5.24;68.39;96218.16;5059316;28;20447;-73
2024/02/23 06:41:53;;;;;;;2.17;0.80;;;6.10;72.20;;;5.42;68.31;96179.00;5054685;28;20455;-71
2024/02/23 06:44:20;;;;;;;3.70;0.97;;;6.10;72.40;;;5.48;68.85;96169.22;5043232;28;20505;-73
2024/02/23 06:46:47;;;;;;;3.27;1.00;;;6.10;72.40;;;5.52;67.84;96168.56;5049293;28;20534;-73
2024/02/23 06:49:15;;;;;;;1.30;1.20;;;6.20;72.70;;;5.27;68.47;96143.78;5058513;28;20451;-72
2024/02/23 06:51:42;;;;;;;3.67;0.90;;;6.20;72.40;;;5.44;68.77;96181.47;5065068;28;20479;-73
2024/02/23 06:54:09;;;;;;;5.40;0.93;;;6.20;72.30;;;5.00;69.00;96123.53;5051071;28;20992;-73
2024/02/23 06:56:38;;;;;;;6.03;1.57;;;6.10;72.50;;;5.31;69.36;96140.41;5057395;28;20871;-72
2024/02/23 06:59:05;;;;;;;4.13;1.40;;;6.20;73.20;;;5.66;70.27;96193.28;5055132;28;20589;-72
2024/02/23 07:01:35;;;;;;;6.10;1.40;;;6.30;73.90;;;5.70;69.24;96203.56;5038656;28;20468;-73
2024/02/23 07:04:02;;;;;;;4.07;1.47;;;6.30;73.10;;;5.71;70.03;96202.53;5047157;28;20476;-73
2024/02/23 07:06:34;;;;;;;3.50;2.10;;;6.40;73.90;;;5.72;71.02;96196.91;5042825;28;20445;-74
2024/02/23 07:09:01;;;;;;;3.47;1.50;;;6.50;74.40;;;5.66;70.63;96200.53;5036618;28;20447;-73
2024/02/23 07:11:28;;;;;;;1.77;1.00;;;6.50;74.00;;;5.62;71.54;96205.50;5067773;28;20457;-73
2024/02/23 07:13:57;;;;;;;2.43;1.27;;;6.40;74.60;;;5.78;73.00;96203.22;5036048;28;20469;-74
2024/02/23 07:16:26;;;;;;;2.40;1.13;;;6.50;75.80;;;6.04;71.43;96180.56;5043338;28;20459;-73
2024/02/23 07:18:54;;;;;;;3.07;1.30;;;6.70;75.40;;;5.91;71.53;96181.56;5040760;28;20441;-73
2024/02/23 07:21:21;;;;;;;1.77;1.10;;;6.60;74.90;;;5.76;71.03;96165.13;5066202;28;20536;-74
2024/02/23 07:23:49;;;;;;;1.20;0.83;;;6.70;74.70;;;5.92;71.74;96167.13;5042864;28;20460;-74
2024/02/23 07:26:16;;;;;;;1.90;1.20;;;6.60;75.00;;;6.12;72.20;96175.94;5047502;28;20461;-75
2024/02/23 07:28:43;;;;;;;3.70;1.70;;;6.80;75.80;;;5.89;71.42;96172.94;5050594;28;20463;-72
2024/02/23 07:31:13;;;;;;;1.80;1.27;;;6.70;74.60;;;5.88;71.33;96171.31;5047357;28;20893;-69
2024/02/23 07:33:41;;;;;;;3.00;1.20;;;6.60;74.80;;;5.94;71.79;96175.75;5053158;28;20475;-72
2024/02/23 07:36:10;;;;;;;2.60;1.10;;;6.70;75.00;;;5.85;71.47;96182.50;5044510;28;20469;-71
2024/02/23 07:38:38;;;;;;;5.93;1.50;;;6.70;74.90;;;5.79;71.59;96191.44;5043570;28;20978;-72
2024/02/23 07:41:05;;;;;;;6.97;1.93;;;6.60;74.80;;;5.64;72.29;96190.00;5042927;28;20465;-69
2024/02/23 07:43:33;;;;;;;3.40;1.17;;;6.50;75.20;;;5.71;71.27;96202.53;5072328;28;20878;-73
2024/02/23 07:46:00;;;;;;;1.73;1.17;;;6.50;74.40;;;6.00;70.35;96200.03;5043601;28;20451;-70
2024/02/23 07:48:29;;;;;;;2.37;1.17;;;6.60;74.50;;;5.94;70.24;96207.13;5043404;28;20776;-70
2024/02/23 07:50:56;;;;;;;4.70;1.17;;;6.60;74.20;;;5.74;70.88;96202.06;5037854;28;20473;-70
2024/02/23 07:53:23;;;;;;;7.20;1.20;;;6.60;74.20;;;5.92;70.12;96215.38;5059469;28;20707;-72
2024/02/23 07:55:51;;;;;;;4.33;1.23;;;6.60;74.00;;;5.77;70.26;96228.38;5046302;28;20549;-73
2024/02/23 07:58:18;;;;;;;2.70;1.20;;;6.60;74.00;;;5.63;70.94;96233.94;5043213;28;20497;-71
2024/02/23 08:00:46;;;;;;;2.33;0.83;;;6.40;74.40;;;5.43;71.67;96222.69;5044364;28;20782;-72
2024/02/23 08:03:14;;;;;;;1.73;0.97;;;6.30;74.40;;;5.54;71.90;96232.63;5043461;28;21128;-73
2024/02/23 08:05:43;;;;;;;1.53;0.90;;;6.30;74.50;;;5.55;71.55;96228.91;5047270;28;20806;-71
2024/02/23 08:08:10;;;;;;;2.40;0.87;;;6.40;74.60;;;5.39;72.74;96223.13;5044159;28;20481;-73
2024/02/23 08:10:37;;;;;;;0.90;0.57;;;6.30;74.60;;;5.73;71.91;96219.97;5041540;28;22460;-74
2024/02/23 08:13:05;;;;;;;5.07;0.70;;;6.40;74.70;;;5.76;70.21;96194.59;5042588;28;20478;-73
2024/02/23 08:15:32;;;;;;;2.73;0.90;;;6.60;73.80;;;5.89;69.73;96194.41;5038675;28;20474;-73
2024/02/23 08:17:59;;;;;;;1.47;0.67;;;6.60;73.60;;;5.96;70.40;96188.94;5048177;28;20929;-74
2024/02/23 08:20:26;;;;;;;3.97;1.03;;;6.70;73.90;;;5.83;69.38;96176.53;5045997;28;20448;-75
2024/02/23 08:23:02;;;;;;;2.60;0.90;;;6.60;73.80;;;5.91;69.40;96173.53;5043151;28;20449;-74
2024/02/23 08:25:30;;;;;;;4.90;1.00;;;6.70;73.30;;;6.08;68.46;96180.94;5045221;28;20458;-74
2024/02/23 08:27:59;;;;;;;2.63;1.30;;;6.70;73.30;;;6.07;68.39;96200.75;5046092;28;20511;-73
2024/02/23 08:30:26;;;;;;;1.33;0.60;;;6.80;73.10;;;5.66;68.82;96152.28;5041360;28;20450;-75
2024/02/23 08:32:54;;;;;;;6.13;1.43;;;6.90;73.10;;;6.13;68.64;96237.34;5044550;28;20485;-75
2024/02/23 08:35:21;;;;;;;2.90;0.90;;;6.90;73.00;;;6.48;67.52;96239.28;5043689;28;20975;-75
2024/02/23 08:37:49;;;;;;;1.03;0.70;;;7.10;73.10;;;6.33;68.30;96236.22;5041945;28;20581;-73
2024/02/23 08:40:17;;;;;;;3.40;0.93;;;7.10;72.90;;;6.69;68.04;96223.63;5040184;28;20479;-73
2024/02/23 08:42:46;;;;;;;1.60;0.83;;;7.30;73.20;;;6.67;68.10;96236.47;5042812;28;20469;-73
2024/02/23 08:45:13;;;;;;;5.43;1.40;;;7.40;73.20;;;6.59;68.65;96236.81;5039971;28;20444;-75
2024/02/23 08:47:42;;;;;;;2.10;1.07;;;7.40;73.50;;;6.57;68.91;96236.22;5041631;28;20471;-74
2024/02/23 08:50:10;;;;;;;2.70;1.07;;;7.40;73.60;;;6.55;68.65;96249.88;5040735;28;20455;-75
2024/02/23 08:52:37;;;;;;;4.37;1.43;;;7.40;73.40;;;6.44;69.41;96246.13;5043887;28;20461;-73
2024/02/23 08:55:05;;;;;;;2.97;1.23;;;7.30;73.70;;;6.60;69.02;96247.31;5042442;28;20481;-73
2024/02/23 08:57:34;;;;;;;2.87;0.80;;;7.30;73.80;;;6.49;69.10;96240.91;5036156;28;20541;-74
2024/02/23 09:00:01;;;;;;;2.20;0.97;;;7.40;73.60;;;6.41;68.07;96192.16;5042199;28;20472;-73
2024/02/23 09:02:28;;;;;;;2.63;0.90;;;7.40;73.30;;;6.75;66.83;96241.50;5043919;28;20514;-73
2024/02/23 09:04:56;;;;;;;1.40;0.90;;;7.50;72.80;;;6.33;68.63;96246.97;5043269;28;20954;-74
2024/02/23 09:07:23;;;;;;;1.53;0.73;;;7.30;72.90;;;6.64;67.45;96255.72;5036707;28;20524;-74
2024/02/23 09:09:51;;;;;;;0.97;0.70;;;7.30;73.00;;;6.27;67.81;96195.06;5037435;28;20443;-74
2024/02/23 09:12:20;;;;;;;2.07;0.90;;;7.30;72.70;;;6.68;66.91;96242.66;5044056;28;20963;-75
2024/02/23 09:14:48;;;;;;;1.10;0.60;;;7.40;72.50;;;6.72;66.58;96244.63;5045931;28;20912;-74
2024/02/23 09:17:16;;;;;;;1.60;0.93;;;7.40;72.40;;;6.78;66.03;96250.91;5038260;28;20444;-82
2024/02/23 09:19:44;;;;;;;1.90;0.70;;;7.50;72.10;;;6.68;65.61;96224.69;5070887;28;20490;-79
2024/02/23 09:22:11;;;;;;;2.77;0.90;;;7.60;71.70;;;6.56;66.11;96261.44;5054462;28;20492;-81
2024/02/23 09:24:43;;;;;;;2.50;0.90;;;7.40;71.40;;;6.72;64.95;96276.03;5054456;28;20465;-81
2024/02/23 09:27:10;;;;;;;2.33;0.83;;;7.40;71.30;;;6.41;65.51;96248.47;5059600;28;20555;-81
2024/02/23 09:29:39;;;;;;;1.70;0.67;;;7.40;71.30;;;6.43;65.25;96271.31;5052377;28;21074;-83
2024/02/23 09:32:08;;;;;;;2.47;1.10;;;7.20;70.60;;;6.84;64.47;96276.00;5052209;28;20465;-81
2024/02/23 09:34:36;;;;;;;1.37;0.90;;;7.40;71.00;;;6.95;63.08;96259.09;5052725;28;20483;-84
2024/02/23 09:37:03;;;;;;;2.57;0.60;;;7.50;70.40;;;6.78;62.81;96270.53;5051406;28;20460;-82
2024/02/23 09:39:31;;;;;;;1.33;0.77;;;7.60;69.60;;;6.60;63.05;96268.78;5071896;28;20471;-76
2024/02/23 09:41:59;;;;;;;1.13;0.90;;;7.50;69.40;;;6.69;62.91;96260.41;5101906;28;20443;-76
2024/02/23 09:44:33;;;;;;;2.87;0.57;;;7.50;69.30;;;6.54;62.97;96260.84;5063987;28;20462;-81
2024/02/23 09:47:07;;;;;;;3.07;0.63;;;7.40;69.00;;;6.85;62.32;96269.59;5053709;28;20513;-81
2024/02/23 09:49:40;;;;;;;4.10;0.90;;;7.50;68.90;;;6.97;61.57;96289.19;5055627;28;20442;-76
2024/02/23 09:52:10;;;;;;;2.20;0.83;;;7.60;68.30;;;7.05;60.37;96282.66;5045246;28;21068;-76
2024/02/23 09:54:40;;;;;;;3.00;0.70;;;7.80;67.80;;;6.81;59.24;96282.66;5043657;28;20800;-70
2024/02/23 09:57:12;;;;;;;1.13;0.60;;;7.70;66.60;;;7.04;59.59;96311.38;5042286;28;21872;-69
2024/02/23 09:59:40;;;;;;;1.83;0.60;;;7.70;67.00;;;7.04;59.80;96306.00;5041370;28;20459;-69
2024/02/23 10:02:11;;;;;;;3.90;1.43;;;7.70;66.90;;;7.07;60.03;96310.09;5040213;28;20575;-69
2024/02/23 10:04:40;;;;;;;2.20;1.07;;;7.80;67.00;;;7.01;59.55;96308.34;5044864;28;20928;-70
2024/02/23 10:07:11;;;;;;;2.60;1.03;;;7.80;66.50;;;7.06;59.76;96301.22;5044901;28;20454;-69
2024/02/23 10:09:40;;;;;;;0.67;0.50;;;7.80;66.40;;;7.21;59.38;96289.19;5036746;28;20483;-71
2024/02/23 10:12:10;;;;;;;2.27;0.70;;;7.80;66.20;;;7.32;58.41;96291.00;5045850;28;20462;-70
2024/02/23 10:14:38;;;;;;;2.40;0.77;;;8.00;66.00;;;7.30;59.01;96306.56;5037928;28;20545;-69
2024/02/23 10:17:09;;;;;;;4.27;1.13;;;8.00;66.10;;;7.45;58.00;96294.50;5043379;28;20456;-71
2024/02/23 10:19:37;;;;;;;2.20;0.90;;;8.10;65.60;;;7.43;57.52;96304.66;5036545;28;20450;-70
2024/02/23 10:22:08;;;;;;;2.83;1.67;;;8.10;65.70;;;7.32;57.50;96306.34;5024462;28;20467;-70
2024/02/23 10:24:38;;;;;;;1.60;0.73;;;8.00;65.30;;;7.12;58.40;96304.03;5040481;28;20831;-69
2024/02/23 10:27:06;;;;;;;3.60;0.87;;;8.00;65.20;;;6.91;58.32;96306.25;5041378;28;20451;-69
2024/02/23 10:29:35;;;;;;;4.53;0.90;;;7.80;64.60;;;6.86;58.25;96309.66;5044513;28;20921;-69
2024/02/23 10:32:04;;;;;;;2.43;0.90;;;7.70;64.60;;;6.56;58.58;96237.28;5021875;28;20585;-70
2024/02/23 10:34:32;;;;;;;1.50;0.60;;;7.70;64.70;;;6.85;57.77;96296.44;5049198;28;20888;-69
2024/02/23 10:37:01;;;;;;;4.10;1.00;;;7.70;64.20;;;6.87;58.69;96305.06;5041451;28;20488;-70